createdAt,value
2023-03-22T00:00:30.214Z,3.00
2023-03-22T00:05:58.638Z,2.90
2023-03-22T00:11:03.035Z,2.90
2023-03-22T00:16:07.168Z,2.82
2023-03-22T00:21:16.158Z,2.80
2023-03-22T00:26:19.249Z,2.72
2023-03-22T00:31:22.364Z,2.70
2023-03-22T00:36:26.350Z,2.70
2023-03-22T00:41:29.464Z,2.80
2023-03-22T00:46:32.553Z,2.80
2023-03-22T00:51:35.791Z,2.80
2023-03-22T00:56:38.814Z,2.86
2023-03-22T01:01:41.883Z,2.90
2023-03-22T01:06:45.095Z,2.90
2023-03-22T01:11:48.194Z,3.00
2023-03-22T01:16:51.877Z,3.10
2023-03-22T01:21:55.736Z,3.20
2023-03-22T01:26:58.855Z,3.30
2023-03-22T01:32:02.153Z,3.40
2023-03-22T01:37:05.370Z,3.50
2023-03-22T01:42:14.504Z,3.60
2023-03-22T01:47:17.620Z,3.60
2023-03-22T01:52:20.829Z,3.60
2023-03-22T01:57:24.826Z,3.70
2023-03-22T02:02:31.174Z,3.70
2023-03-22T02:07:34.457Z,3.70
2023-03-22T02:13:27.634Z,3.80
2023-03-22T02:19:21.018Z,3.90
2023-03-22T02:24:30.071Z,3.90
2023-03-22T02:29:48.837Z,3.90
2023-03-22T02:35:13.544Z,3.80
2023-03-22T02:41:01.301Z,3.80
2023-03-22T02:46:23.587Z,3.60
2023-03-22T02:51:46.115Z,3.50
2023-03-22T02:57:00.699Z,3.40
2023-03-22T03:02:05.880Z,3.30
2023-03-22T03:07:14.555Z,3.30
2023-03-22T03:12:25.313Z,3.30
2023-03-22T03:18:05.235Z,3.30
2023-03-22T03:23:28.846Z,3.30
2023-03-22T03:29:06.354Z,3.30
2023-03-22T03:34:27.827Z,3.20
2023-03-22T03:39:37.335Z,3.10
2023-03-22T03:44:41.707Z,3.10
2023-03-22T03:49:44.811Z,3.10
2023-03-22T03:54:48.015Z,3.20
2023-03-22T03:59:51.091Z,3.30
2023-03-22T04:04:54.092Z,3.40
2023-03-22T04:09:57.226Z,3.40
2023-03-22T04:15:00.680Z,3.40
2023-03-22T04:20:06.356Z,3.40
2023-03-22T04:25:13.350Z,3.46
2023-03-22T04:30:19.252Z,3.50
2023-03-22T04:35:23.308Z,3.60
2023-03-22T04:40:27.238Z,3.72
2023-03-22T04:45:32.622Z,3.90
2023-03-22T04:50:35.689Z,4.00
2023-03-22T04:55:39.104Z,4.16
2023-03-22T05:00:42.514Z,4.30
2023-03-22T05:05:57.089Z,4.32
2023-03-22T05:11:08.390Z,4.40
2023-03-22T05:16:12.451Z,4.50
2023-03-22T05:21:22.248Z,4.60
2023-03-22T05:26:27.248Z,4.70
2023-03-22T05:31:30.874Z,4.82
2023-03-22T05:36:36.725Z,5.00
2023-03-22T05:41:39.809Z,5.10
2023-03-22T05:46:42.888Z,5.20
2023-03-22T05:51:46.133Z,5.30
2023-03-22T05:56:49.441Z,5.40
2023-03-22T06:01:52.629Z,5.40
2023-03-22T06:06:56.706Z,5.46
2023-03-22T06:11:59.884Z,5.50
2023-03-22T06:17:03.762Z,5.62
2023-03-22T06:22:06.820Z,5.70
2023-03-22T06:27:10.863Z,5.90
2023-03-22T06:32:13.954Z,6.00
2023-03-22T06:37:17.255Z,6.08
2023-03-22T06:42:20.574Z,6.12
2023-03-22T06:47:25.020Z,6.20
2023-03-22T06:52:28.102Z,6.30
2023-03-22T06:57:31.426Z,6.30
2023-03-22T07:02:34.531Z,6.30
2023-03-22T07:07:38.053Z,6.40
2023-03-22T07:12:41.873Z,6.42
2023-03-22T07:17:45.410Z,6.50
2023-03-22T07:22:51.412Z,6.60
2023-03-22T07:27:54.497Z,6.60
2023-03-22T07:32:57.566Z,6.70
2023-03-22T07:38:01.420Z,6.70
2023-03-22T07:43:04.500Z,6.80
2023-03-22T07:48:11.532Z,6.90
2023-03-22T07:53:15.124Z,7.00
2023-03-22T07:58:18.337Z,7.10
2023-03-22T08:03:22.491Z,7.10
2023-03-22T08:08:26.708Z,7.20
2023-03-22T08:13:30.511Z,7.20
2023-03-22T08:18:33.720Z,7.30
2023-03-22T08:23:41.824Z,7.28
2023-03-22T08:28:45.773Z,7.20
2023-03-22T08:33:49.512Z,7.20
2023-03-22T08:38:53.331Z,7.30
2023-03-22T08:43:56.663Z,7.40
2023-03-22T08:49:01.395Z,7.50
2023-03-22T08:54:05.604Z,7.58
2023-03-22T08:59:10.471Z,7.66
2023-03-22T09:04:14.272Z,7.70
2023-03-22T09:09:17.689Z,7.70
2023-03-22T09:14:21.000Z,7.72
2023-03-22T09:19:24.201Z,7.74
2023-03-22T09:24:27.308Z,7.82
2023-03-22T09:29:31.412Z,7.90
2023-03-22T09:34:34.685Z,8.00
2023-03-22T09:39:38.692Z,8.10
2023-03-22T09:44:46.287Z,8.20
2023-03-22T09:50:01.702Z,8.30
2023-03-22T09:55:20.892Z,8.30
2023-03-22T10:00:53.777Z,8.40
2023-03-22T10:06:29.397Z,8.50
2023-03-22T10:11:46.215Z,8.60
2023-03-22T10:16:56.445Z,8.70
2023-03-22T10:22:04.122Z,8.80
2023-03-22T10:27:20.932Z,8.90
2023-03-22T10:32:56.490Z,9.00
2023-03-22T10:38:07.402Z,9.00
2023-03-22T10:43:33.398Z,9.10
2023-03-22T10:48:47.915Z,9.20
2023-03-22T10:53:55.268Z,9.24
2023-03-22T10:58:58.694Z,9.30
2023-03-22T11:04:17.492Z,9.30
2023-03-22T11:09:24.558Z,9.40
2023-03-22T11:14:36.903Z,9.40
2023-03-22T11:19:52.074Z,9.40
2023-03-22T11:24:57.166Z,9.40
2023-03-22T11:30:23.923Z,9.42
2023-03-22T11:35:29.770Z,9.58
2023-03-22T11:40:37.062Z,9.60
2023-03-22T11:45:44.398Z,9.60
2023-03-22T11:50:49.073Z,9.70
2023-03-22T11:55:57.373Z,9.60
2023-03-22T12:01:04.072Z,9.60
2023-03-22T12:06:26.692Z,9.70
2023-03-22T12:11:39.000Z,9.70
2023-03-22T12:16:56.445Z,9.80
2023-03-22T12:22:00.381Z,9.90
2023-03-22T12:27:27.383Z,10.00
2023-03-22T12:32:38.756Z,10.10
2023-03-22T12:37:48.176Z,10.10
2023-03-22T12:43:24.100Z,10.20
2023-03-22T12:48:33.570Z,10.30
2023-03-22T12:53:52.567Z,10.40
2023-03-22T12:59:03.704Z,10.42
2023-03-22T13:04:26.057Z,10.44
2023-03-22T13:09:50.465Z,10.50
2023-03-22T13:15:13.878Z,10.60
2023-03-22T13:20:20.328Z,10.70
2023-03-22T13:25:39.800Z,10.80
2023-03-22T13:30:59.019Z,10.80
2023-03-22T13:36:32.212Z,10.70
2023-03-22T13:41:36.766Z,10.70
2023-03-22T13:46:39.941Z,10.70
2023-03-22T13:51:44.951Z,10.70
2023-03-22T13:56:56.756Z,10.80
2023-03-22T14:02:22.491Z,10.80
2023-03-22T14:07:40.399Z,10.90
2023-03-22T14:13:25.733Z,10.96
2023-03-22T14:18:32.810Z,11.20
